sensor_id;sensor_type;location;lat;lon;timestamp;temperature;humidity
20068;DHT22;10194;50.824;7.134;2022-08-05T00:01:31;21.40;99.90
20068;DHT22;10194;50.824;7.134;2022-08-05T00:03:57;21.40;99.90
20068;DHT22;10194;50.824;7.134;2022-08-05T00:06:23;21.40;99.90
20068;DHT22;10194;50.824;7.134;2022-08-05T00:08:49;21.40;99.90
20068;DHT22;10194;50.824;7.134;2022-08-05T00:11:15;21.30;99.90
20068;DHT22;10194;50.824;7.134;2022-08-05T00:13:43;21.20;99.90
20068;DHT22;10194;50.824;7.134;2022-08-05T00:16:13;21.10;99.90
20068;DHT22;10194;50.824;7.134;2022-08-05T00:18:42;21.10;99.90
20068;DHT22;10194;50.824;7.134;2022-08-05T00:21:10;21.10;99.90
20068;DHT22;10194;50.824;7.134;2022-08-05T00:23:37;21.00;99.90
20068;DHT22;10194;50.824;7.134;2022-08-05T00:26:04;21.00;99.90
20068;DHT22;10194;50.824;7.134;2022-08-05T00:28:30;21.00;99.90
20068;DHT22;10194;50.824;7.134;2022-08-05T00:30:56;21.00;99.90
20068;DHT22;10194;50.824;7.134;2022-08-05T00:33:22;21.00;99.90
20068;DHT22;10194;50.824;7.134;2022-08-05T00:35:48;21.00;99.90
20068;DHT22;10194;50.824;7.134;2022-08-05T00:38:13;21.00;99.90
20068;DHT22;10194;50.824;7.134;2022-08-05T00:40:48;20.90;99.90
20068;DHT22;10194;50.824;7.134;2022-08-05T00:43:15;20.90;99.90
20068;DHT22;10194;50.824;7.134;2022-08-05T00:45:41;20.80;99.90
20068;DHT22;10194;50.824;7.134;2022-08-05T00:48:13;20.70;99.90
20068;DHT22;10194;50.824;7.134;2022-08-05T00:50:41;20.70;99.90
20068;DHT22;10194;50.824;7.134;2022-08-05T00:53:09;20.60;99.90
20068;DHT22;10194;50.824;7.134;2022-08-05T00:55:35;20.60;99.90
20068;DHT22;10194;50.824;7.134;2022-08-05T00:58:01;20.60;99.90
20068;DHT22;10194;50.824;7.134;2022-08-05T01:00:28;20.60;99.90
20068;DHT22;10194;50.824;7.134;2022-08-05T01:02:56;20.60;99.90
20068;DHT22;10194;50.824;7.134;2022-08-05T01:05:23;20.70;99.90
20068;DHT22;10194;50.824;7.134;2022-08-05T01:07:49;20.70;99.90
20068;DHT22;10194;50.824;7.134;2022-08-05T01:10:18;20.60;99.90
20068;DHT22;10194;50.824;7.134;2022-08-05T01:13:04;20.50;99.90
20068;DHT22;10194;50.824;7.134;2022-08-05T01:15:46;20.50;99.90
20068;DHT22;10194;50.824;7.134;2022-08-05T01:18:21;20.40;99.90
20068;DHT22;10194;50.824;7.134;2022-08-05T01:24:07;20.40;99.90
20068;DHT22;10194;50.824;7.134;2022-08-05T01:29:39;20.50;99.90
20068;DHT22;10194;50.824;7.134;2022-08-05T01:32:08;20.40;99.90
20068;DHT22;10194;50.824;7.134;2022-08-05T01:34:58;20.40;99.90
20068;DHT22;10194;50.824;7.134;2022-08-05T01:37:46;20.40;99.90
20068;DHT22;10194;50.824;7.134;2022-08-05T01:40:14;20.40;99.90
20068;DHT22;10194;50.824;7.134;2022-08-05T01:42:44;20.40;99.90
20068;DHT22;10194;50.824;7.134;2022-08-05T01:45:12;20.40;99.90
20068;DHT22;10194;50.824;7.134;2022-08-05T01:47:40;20.30;99.90
20068;DHT22;10194;50.824;7.134;2022-08-05T01:50:11;20.30;99.90
20068;DHT22;10194;50.824;7.134;2022-08-05T01:52:40;20.40;99.90
20068;DHT22;10194;50.824;7.134;2022-08-05T01:55:09;20.30;99.90
20068;DHT22;10194;50.824;7.134;2022-08-05T01:57:39;20.30;99.90
20068;DHT22;10194;50.824;7.134;2022-08-05T02:00:07;20.30;99.90
20068;DHT22;10194;50.824;7.134;2022-08-05T02:02:37;20.20;99.90
20068;DHT22;10194;50.824;7.134;2022-08-05T02:05:07;20.20;99.90
20068;DHT22;10194;50.824;7.134;2022-08-05T02:07:35;20.20;99.90
20068;DHT22;10194;50.824;7.134;2022-08-05T02:10:03;20.20;99.90
20068;DHT22;10194;50.824;7.134;2022-08-05T02:12:37;20.30;99.90
20068;DHT22;10194;50.824;7.134;2022-08-05T02:15:11;20.30;99.90
20068;DHT22;10194;50.824;7.134;2022-08-05T02:17:45;20.30;99.90
20068;DHT22;10194;50.824;7.134;2022-08-05T02:20:19;20.40;99.90
20068;DHT22;10194;50.824;7.134;2022-08-05T02:22:51;20.40;99.90
20068;DHT22;10194;50.824;7.134;2022-08-05T02:25:31;20.40;99.90
20068;DHT22;10194;50.824;7.134;2022-08-05T02:28:00;20.50;99.90
20068;DHT22;10194;50.824;7.134;2022-08-05T02:30:31;20.60;99.90
20068;DHT22;10194;50.824;7.134;2022-08-05T02:33:04;20.70;99.90
20068;DHT22;10194;50.824;7.134;2022-08-05T02:35:33;20.70;99.90
20068;DHT22;10194;50.824;7.134;2022-08-05T02:38:00;20.60;99.90
20068;DHT22;10194;50.824;7.134;2022-08-05T02:40:26;20.40;99.90
20068;DHT22;10194;50.824;7.134;2022-08-05T02:42:53;20.40;99.90
20068;DHT22;10194;50.824;7.134;2022-08-05T02:45:21;20.20;99.90
20068;DHT22;10194;50.824;7.134;2022-08-05T02:47:49;20.00;99.90
20068;DHT22;10194;50.824;7.134;2022-08-05T02:50:16;19.80;99.90
20068;DHT22;10194;50.824;7.134;2022-08-05T02:52:44;19.60;99.90
20068;DHT22;10194;50.824;7.134;2022-08-05T02:55:11;19.50;99.90
20068;DHT22;10194;50.824;7.134;2022-08-05T02:57:38;19.40;99.90
20068;DHT22;10194;50.824;7.134;2022-08-05T03:00:06;19.40;99.90
20068;DHT22;10194;50.824;7.134;2022-08-05T03:02:35;19.30;99.90
20068;DHT22;10194;50.824;7.134;2022-08-05T03:05:04;19.30;99.90
20068;DHT22;10194;50.824;7.134;2022-08-05T03:07:33;19.30;99.90
20068;DHT22;10194;50.824;7.134;2022-08-05T03:09:59;19.40;99.90
20068;DHT22;10194;50.824;7.134;2022-08-05T03:12:33;19.40;99.90
20068;DHT22;10194;50.824;7.134;2022-08-05T03:15:01;19.40;99.90
20068;DHT22;10194;50.824;7.134;2022-08-05T03:17:28;19.40;99.90
20068;DHT22;10194;50.824;7.134;2022-08-05T03:19:54;19.40;99.90
20068;DHT22;10194;50.824;7.134;2022-08-05T03:22:20;19.30;99.90
20068;DHT22;10194;50.824;7.134;2022-08-05T03:24:47;19.30;99.90
20068;DHT22;10194;50.824;7.134;2022-08-05T03:27:14;19.30;99.90
20068;DHT22;10194;50.824;7.134;2022-08-05T03:29:40;19.30;99.90
20068;DHT22;10194;50.824;7.134;2022-08-05T03:32:07;19.30;99.90
20068;DHT22;10194;50.824;7.134;2022-08-05T03:34:34;19.30;99.90
20068;DHT22;10194;50.824;7.134;2022-08-05T03:37:01;19.30;99.90
20068;DHT22;10194;50.824;7.134;2022-08-05T03:39:28;19.40;99.90
20068;DHT22;10194;50.824;7.134;2022-08-05T03:41:55;19.40;99.90
20068;DHT22;10194;50.824;7.134;2022-08-05T03:44:21;19.40;99.90
20068;DHT22;10194;50.824;7.134;2022-08-05T03:46:47;19.40;99.90
20068;DHT22;10194;50.824;7.134;2022-08-05T03:49:13;19.30;99.90
20068;DHT22;10194;50.824;7.134;2022-08-05T03:51:54;19.30;99.90
20068;DHT22;10194;50.824;7.134;2022-08-05T03:57:09;19.20;99.90
20068;DHT22;10194;50.824;7.134;2022-08-05T03:59:40;19.20;99.90
20068;DHT22;10194;50.824;7.134;2022-08-05T04:02:09;19.20;99.90
20068;DHT22;10194;50.824;7.134;2022-08-05T04:04:36;19.30;99.90
20068;DHT22;10194;50.824;7.134;2022-08-05T04:07:04;19.30;99.90
20068;DHT22;10194;50.824;7.134;2022-08-05T04:09:30;19.20;99.90
20068;DHT22;10194;50.824;7.134;2022-08-05T04:11:56;19.20;99.90
20068;DHT22;10194;50.824;7.134;2022-08-05T04:14:26;19.10;99.90
20068;DHT22;10194;50.824;7.134;2022-08-05T04:16:52;19.10;99.90
20068;DHT22;10194;50.824;7.134;2022-08-05T04:19:19;19.10;99.90
20068;DHT22;10194;50.824;7.134;2022-08-05T04:21:45;19.10;99.90
20068;DHT22;10194;50.824;7.134;2022-08-05T04:24:11;19.10;99.90
20068;DHT22;10194;50.824;7.134;2022-08-05T04:26:37;19.10;99.90
20068;DHT22;10194;50.824;7.134;2022-08-05T04:29:03;19.10;99.90
20068;DHT22;10194;50.824;7.134;2022-08-05T04:31:28;19.10;99.90
20068;DHT22;10194;50.824;7.134;2022-08-05T04:33:54;19.10;99.90
20068;DHT22;10194;50.824;7.134;2022-08-05T04:36:20;19.10;99.90
20068;DHT22;10194;50.824;7.134;2022-08-05T04:38:46;19.10;99.90
20068;DHT22;10194;50.824;7.134;2022-08-05T04:41:12;19.00;99.90
20068;DHT22;10194;50.824;7.134;2022-08-05T04:43:38;18.90;99.90
20068;DHT22;10194;50.824;7.134;2022-08-05T04:46:04;18.90;99.90
20068;DHT22;10194;50.824;7.134;2022-08-05T04:48:30;19.00;99.90
20068;DHT22;10194;50.824;7.134;2022-08-05T04:50:56;19.00;99.90
20068;DHT22;10194;50.824;7.134;2022-08-05T04:53:22;18.90;99.90
20068;DHT22;10194;50.824;7.134;2022-08-05T04:55:49;19.00;99.90
20068;DHT22;10194;50.824;7.134;2022-08-05T04:58:16;19.00;99.90
20068;DHT22;10194;50.824;7.134;2022-08-05T05:00:42;19.00;99.90
20068;DHT22;10194;50.824;7.134;2022-08-05T05:03:10;19.10;99.90
20068;DHT22;10194;50.824;7.134;2022-08-05T05:05:36;19.10;99.90
20068;DHT22;10194;50.824;7.134;2022-08-05T05:08:05;19.10;99.90
20068;DHT22;10194;50.824;7.134;2022-08-05T05:10:40;19.20;99.90
20068;DHT22;10194;50.824;7.134;2022-08-05T05:13:09;19.30;99.90
20068;DHT22;10194;50.824;7.134;2022-08-05T05:15:36;19.30;99.90
20068;DHT22;10194;50.824;7.134;2022-08-05T05:18:02;19.30;99.90
20068;DHT22;10194;50.824;7.134;2022-08-05T05:20:29;19.30;99.90
20068;DHT22;10194;50.824;7.134;2022-08-05T05:22:56;19.40;99.90
20068;DHT22;10194;50.824;7.134;2022-08-05T05:25:23;19.50;99.90
20068;DHT22;10194;50.824;7.134;2022-08-05T05:27:49;19.50;99.90
20068;DHT22;10194;50.824;7.134;2022-08-05T05:30:17;19.40;99.90
20068;DHT22;10194;50.824;7.134;2022-08-05T05:32:44;19.40;99.90
20068;DHT22;10194;50.824;7.134;2022-08-05T05:35:10;19.30;99.90
20068;DHT22;10194;50.824;7.134;2022-08-05T05:37:54;19.30;99.90
20068;DHT22;10194;50.824;7.134;2022-08-05T05:40:23;19.30;99.90
20068;DHT22;10194;50.824;7.134;2022-08-05T05:42:50;19.30;99.90
20068;DHT22;10194;50.824;7.134;2022-08-05T05:45:17;19.40;99.90
20068;DHT22;10194;50.824;7.134;2022-08-05T05:47:43;19.50;99.90
20068;DHT22;10194;50.824;7.134;2022-08-05T05:50:13;19.50;99.90
20068;DHT22;10194;50.824;7.134;2022-08-05T05:52:40;19.50;99.90
20068;DHT22;10194;50.824;7.134;2022-08-05T05:55:11;19.50;99.90
20068;DHT22;10194;50.824;7.134;2022-08-05T05:57:39;19.50;99.90
20068;DHT22;10194;50.824;7.134;2022-08-05T06:00:10;19.70;99.90
20068;DHT22;10194;50.824;7.134;2022-08-05T06:02:37;19.70;99.90
20068;DHT22;10194;50.824;7.134;2022-08-05T06:05:05;19.70;99.90
20068;DHT22;10194;50.824;7.134;2022-08-05T06:07:31;19.70;99.90
20068;DHT22;10194;50.824;7.134;2022-08-05T06:09:57;19.70;99.90
20068;DHT22;10194;50.824;7.134;2022-08-05T06:12:23;19.70;99.90
20068;DHT22;10194;50.824;7.134;2022-08-05T06:14:49;19.70;99.90
20068;DHT22;10194;50.824;7.134;2022-08-05T06:17:14;19.80;99.90
20068;DHT22;10194;50.824;7.134;2022-08-05T06:19:40;19.80;99.90
20068;DHT22;10194;50.824;7.134;2022-08-05T06:22:06;20.00;99.90
20068;DHT22;10194;50.824;7.134;2022-08-05T06:24:34;20.10;99.90
20068;DHT22;10194;50.824;7.134;2022-08-05T06:27:01;20.20;99.90
20068;DHT22;10194;50.824;7.134;2022-08-05T06:29:27;20.20;99.90
20068;DHT22;10194;50.824;7.134;2022-08-05T06:31:53;20.20;99.90
20068;DHT22;10194;50.824;7.134;2022-08-05T06:34:19;20.20;99.90
20068;DHT22;10194;50.824;7.134;2022-08-05T06:36:45;20.30;99.90
20068;DHT22;10194;50.824;7.134;2022-08-05T06:39:11;20.30;99.90
20068;DHT22;10194;50.824;7.134;2022-08-05T06:41:36;20.20;99.90
20068;DHT22;10194;50.824;7.134;2022-08-05T06:44:02;20.10;99.90
20068;DHT22;10194;50.824;7.134;2022-08-05T06:46:29;20.20;99.90
20068;DHT22;10194;50.824;7.134;2022-08-05T06:48:54;20.20;99.90
20068;DHT22;10194;50.824;7.134;2022-08-05T06:51:20;20.30;99.90
20068;DHT22;10194;50.824;7.134;2022-08-05T06:53:46;20.40;99.90
20068;DHT22;10194;50.824;7.134;2022-08-05T06:56:12;20.30;99.90
20068;DHT22;10194;50.824;7.134;2022-08-05T06:58:38;20.40;99.90
20068;DHT22;10194;50.824;7.134;2022-08-05T07:01:05;20.50;99.90
20068;DHT22;10194;50.824;7.134;2022-08-05T07:03:31;20.40;99.90
20068;DHT22;10194;50.824;7.134;2022-08-05T07:05:58;20.30;99.90
20068;DHT22;10194;50.824;7.134;2022-08-05T07:08:24;20.30;99.90
20068;DHT22;10194;50.824;7.134;2022-08-05T07:10:50;20.10;99.90
20068;DHT22;10194;50.824;7.134;2022-08-05T07:13:16;20.00;99.90
20068;DHT22;10194;50.824;7.134;2022-08-05T07:16:01;19.90;99.90
20068;DHT22;10194;50.824;7.134;2022-08-05T07:18:45;19.70;99.90
20068;DHT22;10194;50.824;7.134;2022-08-05T07:21:11;19.80;99.90
20068;DHT22;10194;50.824;7.134;2022-08-05T07:23:36;19.90;99.90
20068;DHT22;10194;50.824;7.134;2022-08-05T07:26:03;20.00;99.90
20068;DHT22;10194;50.824;7.134;2022-08-05T07:28:29;20.10;99.90
20068;DHT22;10194;50.824;7.134;2022-08-05T07:30:55;20.00;99.90
20068;DHT22;10194;50.824;7.134;2022-08-05T07:33:21;20.00;99.90
20068;DHT22;10194;50.824;7.134;2022-08-05T07:35:47;20.00;99.90
20068;DHT22;10194;50.824;7.134;2022-08-05T07:38:17;20.10;99.90
20068;DHT22;10194;50.824;7.134;2022-08-05T07:40:44;20.10;99.90
20068;DHT22;10194;50.824;7.134;2022-08-05T07:43:10;20.20;99.90
20068;DHT22;10194;50.824;7.134;2022-08-05T07:45:38;20.30;99.90
20068;DHT22;10194;50.824;7.134;2022-08-05T07:48:05;20.40;99.90
20068;DHT22;10194;50.824;7.134;2022-08-05T07:50:31;20.50;99.90
20068;DHT22;10194;50.824;7.134;2022-08-05T07:52:57;20.80;99.90
20068;DHT22;10194;50.824;7.134;2022-08-05T07:55:23;20.80;99.90
20068;DHT22;10194;50.824;7.134;2022-08-05T07:57:49;20.80;99.90
20068;DHT22;10194;50.824;7.134;2022-08-05T08:00:16;20.80;99.90
20068;DHT22;10194;50.824;7.134;2022-08-05T08:02:42;21.00;99.90
20068;DHT22;10194;50.824;7.134;2022-08-05T08:05:09;20.90;99.90
20068;DHT22;10194;50.824;7.134;2022-08-05T08:07:35;20.80;99.90
20068;DHT22;10194;50.824;7.134;2022-08-05T08:10:01;20.90;99.90
20068;DHT22;10194;50.824;7.134;2022-08-05T08:12:27;20.90;99.90
20068;DHT22;10194;50.824;7.134;2022-08-05T08:14:53;20.90;99.90
20068;DHT22;10194;50.824;7.134;2022-08-05T08:17:19;21.00;99.90
20068;DHT22;10194;50.824;7.134;2022-08-05T08:19:45;20.90;99.90
20068;DHT22;10194;50.824;7.134;2022-08-05T08:22:11;20.80;99.90
20068;DHT22;10194;50.824;7.134;2022-08-05T08:24:37;20.60;99.90
20068;DHT22;10194;50.824;7.134;2022-08-05T08:27:05;20.50;99.90
20068;DHT22;10194;50.824;7.134;2022-08-05T08:29:31;20.50;99.90
20068;DHT22;10194;50.824;7.134;2022-08-05T08:31:57;20.40;99.90
20068;DHT22;10194;50.824;7.134;2022-08-05T08:34:24;20.10;99.90
20068;DHT22;10194;50.824;7.134;2022-08-05T08:36:51;20.00;99.90
20068;DHT22;10194;50.824;7.134;2022-08-05T08:39:18;19.90;99.90
20068;DHT22;10194;50.824;7.134;2022-08-05T08:41:47;19.90;99.90
20068;DHT22;10194;50.824;7.134;2022-08-05T08:44:16;19.80;99.90
20068;DHT22;10194;50.824;7.134;2022-08-05T08:46:43;20.00;99.90
20068;DHT22;10194;50.824;7.134;2022-08-05T08:49:12;20.00;99.90
20068;DHT22;10194;50.824;7.134;2022-08-05T08:51:41;19.90;99.90
20068;DHT22;10194;50.824;7.134;2022-08-05T08:54:09;19.70;99.90
20068;DHT22;10194;50.824;7.134;2022-08-05T08:56:38;19.60;99.90
20068;DHT22;10194;50.824;7.134;2022-08-05T08:59:04;19.70;99.90
20068;DHT22;10194;50.824;7.134;2022-08-05T09:01:31;19.80;99.90
20068;DHT22;10194;50.824;7.134;2022-08-05T09:03:57;20.00;99.90
20068;DHT22;10194;50.824;7.134;2022-08-05T09:06:26;20.20;99.90
20068;DHT22;10194;50.824;7.134;2022-08-05T09:08:53;20.30;99.90
20068;DHT22;10194;50.824;7.134;2022-08-05T09:11:20;20.30;99.90
20068;DHT22;10194;50.824;7.134;2022-08-05T09:13:46;20.30;99.90
20068;DHT22;10194;50.824;7.134;2022-08-05T09:16:12;20.30;99.90
20068;DHT22;10194;50.824;7.134;2022-08-05T09:18:38;20.40;99.90
20068;DHT22;10194;50.824;7.134;2022-08-05T09:21:05;20.40;99.90
20068;DHT22;10194;50.824;7.134;2022-08-05T09:23:31;20.50;99.90
20068;DHT22;10194;50.824;7.134;2022-08-05T09:26:10;20.30;99.90
20068;DHT22;10194;50.824;7.134;2022-08-05T09:28:38;20.10;99.90
20068;DHT22;10194;50.824;7.134;2022-08-05T09:31:12;20.10;99.90
20068;DHT22;10194;50.824;7.134;2022-08-05T09:33:55;20.40;99.90
20068;DHT22;10194;50.824;7.134;2022-08-05T09:36:47;20.80;99.90
20068;DHT22;10194;50.824;7.134;2022-08-05T09:39:18;20.90;99.90
20068;DHT22;10194;50.824;7.134;2022-08-05T09:41:55;21.00;99.90
20068;DHT22;10194;50.824;7.134;2022-08-05T09:45:04;21.00;99.90
20068;DHT22;10194;50.824;7.134;2022-08-05T09:47:30;20.40;99.90
20068;DHT22;10194;50.824;7.134;2022-08-05T09:49:57;20.20;99.90
20068;DHT22;10194;50.824;7.134;2022-08-05T09:52:26;20.10;99.90
20068;DHT22;10194;50.824;7.134;2022-08-05T09:57:39;20.00;99.90
20068;DHT22;10194;50.824;7.134;2022-08-05T10:00:16;19.70;99.90
20068;DHT22;10194;50.824;7.134;2022-08-05T10:02:47;19.70;99.90
20068;DHT22;10194;50.824;7.134;2022-08-05T10:05:17;19.80;99.90
20068;DHT22;10194;50.824;7.134;2022-08-05T10:07:53;19.80;99.90
20068;DHT22;10194;50.824;7.134;2022-08-05T10:10:22;19.80;99.90
20068;DHT22;10194;50.824;7.134;2022-08-05T10:12:53;19.80;99.90
20068;DHT22;10194;50.824;7.134;2022-08-05T10:15:23;19.80;99.90
20068;DHT22;10194;50.824;7.134;2022-08-05T10:18:13;19.50;99.90
20068;DHT22;10194;50.824;7.134;2022-08-05T10:20:59;19.20;99.90
20068;DHT22;10194;50.824;7.134;2022-08-05T10:23:31;18.90;99.90
20068;DHT22;10194;50.824;7.134;2022-08-05T10:26:01;19.00;99.90
20068;DHT22;10194;50.824;7.134;2022-08-05T10:28:29;19.10;99.90
20068;DHT22;10194;50.824;7.134;2022-08-05T10:30:55;19.00;99.90
20068;DHT22;10194;50.824;7.134;2022-08-05T10:33:25;19.00;99.90
20068;DHT22;10194;50.824;7.134;2022-08-05T10:35:52;18.80;99.90
20068;DHT22;10194;50.824;7.134;2022-08-05T10:38:22;18.80;99.90
20068;DHT22;10194;50.824;7.134;2022-08-05T10:46:12;18.60;99.90
20068;DHT22;10194;50.824;7.134;2022-08-05T10:48:41;18.60;99.90
20068;DHT22;10194;50.824;7.134;2022-08-05T10:53:39;18.60;99.90
20068;DHT22;10194;50.824;7.134;2022-08-05T10:56:16;18.80;99.90
20068;DHT22;10194;50.824;7.134;2022-08-05T11:01:36;18.80;99.90
20068;DHT22;10194;50.824;7.134;2022-08-05T11:04:06;18.60;99.90
20068;DHT22;10194;50.824;7.134;2022-08-05T11:06:34;18.50;99.90
20068;DHT22;10194;50.824;7.134;2022-08-05T11:12:40;18.40;99.90
20068;DHT22;10194;50.824;7.134;2022-08-05T11:17:41;18.50;99.90
20068;DHT22;10194;50.824;7.134;2022-08-05T11:20:32;18.50;99.90
20068;DHT22;10194;50.824;7.134;2022-08-05T11:22:59;18.50;99.90
20068;DHT22;10194;50.824;7.134;2022-08-05T11:25:35;18.40;99.90
20068;DHT22;10194;50.824;7.134;2022-08-05T11:36:12;18.60;99.90
20068;DHT22;10194;50.824;7.134;2022-08-05T11:46:52;19.60;99.90
20068;DHT22;10194;50.824;7.134;2022-08-05T11:49:20;19.80;99.90
20068;DHT22;10194;50.824;7.134;2022-08-05T11:51:48;20.00;99.90
20068;DHT22;10194;50.824;7.134;2022-08-05T11:54:41;20.10;99.90
20068;DHT22;10194;50.824;7.134;2022-08-05T11:57:07;20.30;99.90
20068;DHT22;10194;50.824;7.134;2022-08-05T11:59:33;20.20;99.90
20068;DHT22;10194;50.824;7.134;2022-08-05T12:02:04;20.30;99.90
20068;DHT22;10194;50.824;7.134;2022-08-05T12:07:08;20.50;99.90
20068;DHT22;10194;50.824;7.134;2022-08-05T12:09:45;20.50;99.90
20068;DHT22;10194;50.824;7.134;2022-08-05T12:12:13;20.70;99.90
20068;DHT22;10194;50.824;7.134;2022-08-05T12:14:46;21.00;99.90
20068;DHT22;10194;50.824;7.134;2022-08-05T12:17:13;21.10;99.90
20068;DHT22;10194;50.824;7.134;2022-08-05T12:19:52;21.00;99.90
20068;DHT22;10194;50.824;7.134;2022-08-05T12:22:20;21.00;99.90
20068;DHT22;10194;50.824;7.134;2022-08-05T12:24:51;21.40;99.90
20068;DHT22;10194;50.824;7.134;2022-08-05T12:27:22;21.10;99.90
20068;DHT22;10194;50.824;7.134;2022-08-05T12:30:04;20.90;99.90
20068;DHT22;10194;50.824;7.134;2022-08-05T12:32:45;20.50;99.90
20068;DHT22;10194;50.824;7.134;2022-08-05T12:35:17;20.30;99.90
20068;DHT22;10194;50.824;7.134;2022-08-05T12:37:45;20.40;99.90
20068;DHT22;10194;50.824;7.134;2022-08-05T12:40:11;20.50;99.90
20068;DHT22;10194;50.824;7.134;2022-08-05T12:42:38;20.70;99.90
20068;DHT22;10194;50.824;7.134;2022-08-05T12:45:06;20.90;99.90
20068;DHT22;10194;50.824;7.134;2022-08-05T12:47:35;21.00;99.90
20068;DHT22;10194;50.824;7.134;2022-08-05T12:50:16;20.90;99.90
20068;DHT22;10194;50.824;7.134;2022-08-05T12:52:52;20.90;99.90
20068;DHT22;10194;50.824;7.134;2022-08-05T12:55:22;20.90;99.90
20068;DHT22;10194;50.824;7.134;2022-08-05T12:57:54;21.00;99.90
20068;DHT22;10194;50.824;7.134;2022-08-05T13:00:22;21.00;99.90
20068;DHT22;10194;50.824;7.134;2022-08-05T13:02:51;21.20;99.90
20068;DHT22;10194;50.824;7.134;2022-08-05T13:05:17;21.30;99.90
20068;DHT22;10194;50.824;7.134;2022-08-05T13:07:44;21.30;99.90
20068;DHT22;10194;50.824;7.134;2022-08-05T13:10:12;21.50;99.90
20068;DHT22;10194;50.824;7.134;2022-08-05T13:12:42;21.50;99.90
20068;DHT22;10194;50.824;7.134;2022-08-05T13:15:10;21.70;99.90
20068;DHT22;10194;50.824;7.134;2022-08-05T13:17:36;21.80;99.90
20068;DHT22;10194;50.824;7.134;2022-08-05T13:20:08;22.20;99.90
20068;DHT22;10194;50.824;7.134;2022-08-05T13:22:47;22.30;99.90
20068;DHT22;10194;50.824;7.134;2022-08-05T13:25:16;22.20;99.90
20068;DHT22;10194;50.824;7.134;2022-08-05T13:27:52;22.20;99.90
20068;DHT22;10194;50.824;7.134;2022-08-05T13:30:21;22.40;99.90
20068;DHT22;10194;50.824;7.134;2022-08-05T13:32:52;22.50;99.90
20068;DHT22;10194;50.824;7.134;2022-08-05T13:35:18;22.60;99.90
20068;DHT22;10194;50.824;7.134;2022-08-05T13:37:45;22.70;99.90
20068;DHT22;10194;50.824;7.134;2022-08-05T13:40:13;22.60;99.90
20068;DHT22;10194;50.824;7.134;2022-08-05T13:42:39;22.40;99.90
20068;DHT22;10194;50.824;7.134;2022-08-05T13:45:08;22.50;99.90
20068;DHT22;10194;50.824;7.134;2022-08-05T13:47:35;22.60;99.90
20068;DHT22;10194;50.824;7.134;2022-08-05T13:50:03;22.60;99.90
20068;DHT22;10194;50.824;7.134;2022-08-05T13:52:30;22.50;99.90
20068;DHT22;10194;50.824;7.134;2022-08-05T13:54:56;22.40;99.90
20068;DHT22;10194;50.824;7.134;2022-08-05T13:57:25;22.30;99.90
20068;DHT22;10194;50.824;7.134;2022-08-05T13:59:51;22.40;99.90
20068;DHT22;10194;50.824;7.134;2022-08-05T14:02:17;22.60;99.90
20068;DHT22;10194;50.824;7.134;2022-08-05T14:04:45;22.50;99.90
20068;DHT22;10194;50.824;7.134;2022-08-05T14:07:34;22.40;99.90
20068;DHT22;10194;50.824;7.134;2022-08-05T14:10:10;22.20;99.90
20068;DHT22;10194;50.824;7.134;2022-08-05T14:12:38;22.30;99.90
20068;DHT22;10194;50.824;7.134;2022-08-05T14:15:05;22.30;99.90
20068;DHT22;10194;50.824;7.134;2022-08-05T14:17:31;22.50;99.90
20068;DHT22;10194;50.824;7.134;2022-08-05T14:19:57;22.70;99.90
20068;DHT22;10194;50.824;7.134;2022-08-05T14:22:23;22.80;99.90
20068;DHT22;10194;50.824;7.134;2022-08-05T14:24:49;23.00;99.90
20068;DHT22;10194;50.824;7.134;2022-08-05T14:27:15;23.00;99.90
20068;DHT22;10194;50.824;7.134;2022-08-05T14:29:41;22.90;99.90
20068;DHT22;10194;50.824;7.134;2022-08-05T14:32:07;22.80;99.90
20068;DHT22;10194;50.824;7.134;2022-08-05T14:34:33;22.80;99.90
20068;DHT22;10194;50.824;7.134;2022-08-05T14:36:59;22.60;99.90
20068;DHT22;10194;50.824;7.134;2022-08-05T14:39:25;22.60;99.90
20068;DHT22;10194;50.824;7.134;2022-08-05T14:41:51;22.40;99.90
20068;DHT22;10194;50.824;7.134;2022-08-05T14:44:17;22.50;99.90
20068;DHT22;10194;50.824;7.134;2022-08-05T14:46:43;22.50;99.90
20068;DHT22;10194;50.824;7.134;2022-08-05T14:49:09;22.70;99.90
20068;DHT22;10194;50.824;7.134;2022-08-05T14:51:39;22.90;99.90
20068;DHT22;10194;50.824;7.134;2022-08-05T14:54:06;23.00;99.90
20068;DHT22;10194;50.824;7.134;2022-08-05T14:56:32;23.10;99.90
20068;DHT22;10194;50.824;7.134;2022-08-05T14:58:59;23.20;99.90
20068;DHT22;10194;50.824;7.134;2022-08-05T15:01:24;23.00;99.90
20068;DHT22;10194;50.824;7.134;2022-08-05T15:03:51;22.70;99.90
20068;DHT22;10194;50.824;7.134;2022-08-05T15:06:17;22.60;99.90
20068;DHT22;10194;50.824;7.134;2022-08-05T15:08:44;22.50;99.90
20068;DHT22;10194;50.824;7.134;2022-08-05T15:11:10;22.50;99.90
20068;DHT22;10194;50.824;7.134;2022-08-05T15:13:36;22.50;99.90
20068;DHT22;10194;50.824;7.134;2022-08-05T15:16:03;22.80;99.90
20068;DHT22;10194;50.824;7.134;2022-08-05T15:18:29;22.90;99.90
20068;DHT22;10194;50.824;7.134;2022-08-05T15:20:55;22.90;99.90
20068;DHT22;10194;50.824;7.134;2022-08-05T15:23:20;22.90;99.90
20068;DHT22;10194;50.824;7.134;2022-08-05T15:25:46;22.80;99.90
20068;DHT22;10194;50.824;7.134;2022-08-05T15:28:13;22.80;99.90
20068;DHT22;10194;50.824;7.134;2022-08-05T15:30:39;22.70;99.90
20068;DHT22;10194;50.824;7.134;2022-08-05T15:33:05;22.60;98.60
20068;DHT22;10194;50.824;7.134;2022-08-05T15:35:32;22.60;99.90
20068;DHT22;10194;50.824;7.134;2022-08-05T15:37:58;22.60;99.60
20068;DHT22;10194;50.824;7.134;2022-08-05T15:40:23;22.60;99.90
20068;DHT22;10194;50.824;7.134;2022-08-05T15:42:49;22.50;98.90
20068;DHT22;10194;50.824;7.134;2022-08-05T15:45:16;22.40;99.90
20068;DHT22;10194;50.824;7.134;2022-08-05T15:47:43;22.40;99.80
20068;DHT22;10194;50.824;7.134;2022-08-05T15:50:10;22.40;98.90
20068;DHT22;10194;50.824;7.134;2022-08-05T15:52:38;22.50;98.80
20068;DHT22;10194;50.824;7.134;2022-08-05T15:55:05;22.30;98.80
20068;DHT22;10194;50.824;7.134;2022-08-05T15:57:34;22.30;99.40
20068;DHT22;10194;50.824;7.134;2022-08-05T16:00:00;22.30;99.80
20068;DHT22;10194;50.824;7.134;2022-08-05T16:02:28;22.30;99.60
20068;DHT22;10194;50.824;7.134;2022-08-05T16:04:53;22.30;99.90
20068;DHT22;10194;50.824;7.134;2022-08-05T16:07:19;22.20;99.90
20068;DHT22;10194;50.824;7.134;2022-08-05T16:09:48;22.30;99.70
20068;DHT22;10194;50.824;7.134;2022-08-05T16:12:14;22.20;98.80
20068;DHT22;10194;50.824;7.134;2022-08-05T16:14:41;22.20;98.90
20068;DHT22;10194;50.824;7.134;2022-08-05T16:17:08;22.10;98.30
20068;DHT22;10194;50.824;7.134;2022-08-05T16:19:34;22.20;98.90
20068;DHT22;10194;50.824;7.134;2022-08-05T16:22:00;22.20;98.60
20068;DHT22;10194;50.824;7.134;2022-08-05T16:24:26;22.10;98.30
20068;DHT22;10194;50.824;7.134;2022-08-05T16:27:01;22.00;99.40